createdAt,value
2014-07-20T08:51:31.327Z,100655
2014-07-20T08:53:24.549Z,100658
2014-07-20T08:53:42.861Z,100658
2014-07-20T08:54:01.205Z,100655
2014-07-20T08:54:19.573Z,100661
2014-07-20T08:54:37.901Z,100658
2014-07-20T08:54:56.229Z,100661
2014-07-20T08:55:14.613Z,100654
2014-07-20T08:55:32.941Z,100654
2014-07-20T08:55:51.269Z,100654
2014-07-20T08:56:09.637Z,100670
2014-07-20T08:56:27.965Z,100664
2014-07-20T08:56:46.293Z,100661
2014-07-20T08:57:04.677Z,100655
2014-07-20T08:57:23.005Z,100651
2014-07-20T08:57:41.333Z,100653
2014-07-20T08:57:59.661Z,100658
2014-07-20T08:58:18.010Z,100658
2014-07-20T08:58:36.338Z,100653
2014-07-20T08:58:54.682Z,100664
2014-07-20T08:59:13.025Z,100658
2014-07-20T08:59:31.353Z,100661
2014-07-20T08:59:49.681Z,100656
2014-07-20T09:00:08.040Z,100667
2014-07-20T09:00:26.368Z,100625
2014-07-20T09:00:44.696Z,100663
2014-07-20T09:01:03.040Z,100660
2014-07-20T09:01:21.384Z,100658
2014-07-20T09:01:39.712Z,100664
2014-07-20T09:01:58.040Z,100658
2014-07-20T09:02:16.384Z,100658
2014-07-20T09:02:34.727Z,100663
2014-07-20T09:02:53.055Z,100663
2014-07-20T09:03:11.393Z,100660
2014-07-20T09:03:29.721Z,100668
2014-07-20T09:03:48.049Z,100668
2014-07-20T09:04:06.400Z,100668
2014-07-20T09:04:24.728Z,100668
2014-07-20T09:04:43.056Z,100671
2014-07-20T09:05:01.400Z,100668
2014-07-20T09:05:19.734Z,100662
2014-07-20T09:05:38.062Z,100668
2014-07-20T09:05:56.390Z,100656
2014-07-20T09:06:14.741Z,100654
2014-07-20T09:06:33.069Z,100665
2014-07-20T09:06:51.397Z,100662
2014-07-20T09:07:09.732Z,100656
2014-07-20T09:07:28.060Z,100667
2014-07-20T09:07:46.404Z,100667
2014-07-20T09:08:04.737Z,100659
2014-07-20T09:08:23.081Z,100659
2014-07-20T09:08:41.409Z,100667
2014-07-20T09:08:59.737Z,100667
2014-07-20T09:09:18.069Z,100662
2014-07-20T09:09:36.397Z,100662
2014-07-20T09:09:54.741Z,100667
2014-07-20T09:10:13.073Z,100662
2014-07-20T09:10:31.401Z,100665
2014-07-20T09:10:49.745Z,100662
2014-07-20T09:11:08.077Z,100659
2014-07-20T09:11:26.405Z,100661
2014-07-20T09:13:27.068Z,100654
2014-07-20T09:13:45.396Z,100654
2014-07-20T09:14:03.724Z,100656
2014-07-20T09:14:22.054Z,100651
2014-07-20T09:14:40.382Z,100649
2014-07-20T09:14:58.710Z,100662
2014-07-20T09:15:17.056Z,100655
2014-07-20T09:15:35.384Z,100660
2014-07-20T09:15:53.712Z,100665
2014-07-20T09:16:12.043Z,100657
2014-07-20T09:16:30.371Z,100655
2014-07-20T09:16:48.700Z,100652
2014-07-20T09:17:07.046Z,100652
2014-07-20T09:17:25.374Z,100649
2014-07-20T09:17:43.703Z,100657
2014-07-20T09:18:02.031Z,100655
2014-07-20T09:18:20.361Z,100660
2014-07-20T09:18:38.689Z,100655
2014-07-20T09:18:57.033Z,100655
2014-07-20T09:19:15.363Z,100646
2014-07-20T09:19:33.691Z,100657
2014-07-20T09:19:52.019Z,100649
2014-07-20T09:20:10.365Z,100663
2014-07-20T09:20:28.693Z,100655
2014-07-20T09:20:47.021Z,100660
2014-07-20T09:21:05.365Z,100655
2014-07-20T09:21:23.696Z,100657
2014-07-20T09:21:42.024Z,100649
2014-07-20T09:22:00.352Z,100660
2014-07-20T09:22:18.682Z,100657
2014-07-20T09:22:37.026Z,100666
2014-07-20T09:22:55.354Z,100652
2014-07-20T09:23:13.684Z,100669
2014-07-20T09:23:32.012Z,100663
2014-07-20T09:23:50.356Z,100652
2014-07-20T09:24:08.684Z,100649
2014-07-20T09:24:27.030Z,100652
2014-07-20T09:24:45.358Z,100652
2014-07-20T09:25:03.686Z,100655
2014-07-20T09:25:22.016Z,100657
2014-07-20T09:25:40.345Z,100657
2014-07-20T09:25:58.688Z,100657
2014-07-20T09:26:17.018Z,100652
2014-07-20T09:26:35.347Z,100655
2014-07-20T09:26:53.675Z,100655
2014-07-20T09:27:12.005Z,100650
2014-07-20T09:27:30.349Z,100655
2014-07-20T09:27:48.677Z,100653
2014-07-20T09:28:07.005Z,100647
2014-07-20T09:28:25.351Z,100647
2014-07-20T09:28:43.679Z,100647
2014-07-20T09:29:02.007Z,100650
2014-07-20T09:29:20.352Z,100647
2014-07-20T09:29:38.680Z,100647
2014-07-20T09:29:57.008Z,100644
2014-07-20T09:30:15.354Z,100650
2014-07-20T09:30:33.682Z,100655
2014-07-20T09:30:52.010Z,100655
2014-07-20T09:31:10.338Z,100650
2014-07-20T09:31:28.668Z,100653
2014-07-20T09:31:47.012Z,100650
2014-07-20T09:32:05.340Z,100653
2014-07-20T09:32:23.733Z,100653
2014-07-20T09:32:42.061Z,100655
2014-07-20T09:33:00.389Z,100653
2014-07-20T09:33:18.719Z,100650
2014-07-20T09:33:37.063Z,100650
2014-07-20T09:33:55.391Z,100653
2014-07-20T09:34:13.877Z,100660
2014-07-20T09:34:32.158Z,100650
2014-07-20T09:34:50.487Z,100653
2014-07-20T09:35:08.830Z,100657
2014-07-20T09:35:27.160Z,100644
2014-07-20T09:35:45.754Z,100657
2014-07-20T09:36:03.864Z,100650
2014-07-20T09:36:22.194Z,100655
2014-07-20T09:36:40.537Z,100653
2014-07-20T09:36:58.866Z,100658
2014-07-20T09:37:17.196Z,100647
2014-07-20T09:37:35.539Z,100653
2014-07-20T09:37:53.868Z,100650
2014-07-20T09:38:12.198Z,100650
2014-07-20T09:38:30.526Z,100647
2014-07-20T09:38:48.870Z,100655
2014-07-20T09:39:07.198Z,100655
2014-07-20T09:39:25.528Z,100653
2014-07-20T09:39:43.872Z,100647
2014-07-20T09:40:02.200Z,100641
2014-07-20T09:40:20.530Z,100650
2014-07-20T09:40:38.874Z,100647
2014-07-20T09:40:57.202Z,100650
2014-07-20T09:41:15.531Z,100658
2014-07-20T09:41:33.859Z,100653
2014-07-20T09:41:52.203Z,100655
2014-07-20T09:42:10.531Z,100655
2014-07-20T09:42:28.878Z,100653
2014-07-20T09:42:47.206Z,100650
2014-07-20T09:43:05.534Z,100653
2014-07-20T09:43:23.864Z,100653
2014-07-20T09:43:42.208Z,100655
2014-07-20T09:44:00.536Z,100655
2014-07-20T09:44:18.866Z,100655
2014-07-20T09:44:37.210Z,100653
2014-07-20T09:44:55.538Z,100658
2014-07-20T09:45:13.866Z,100655
2014-07-20T09:45:32.196Z,100653
2014-07-20T09:45:50.540Z,100650
2014-07-20T09:46:08.868Z,100650
2014-07-20T09:46:27.198Z,100644
2014-07-20T09:46:45.542Z,100645
2014-07-20T09:47:03.870Z,100647
2014-07-20T09:47:22.200Z,100648
2014-07-20T09:47:40.528Z,100650
2014-07-20T09:47:58.856Z,100655
2014-07-20T09:48:17.184Z,100651
2014-07-20T09:48:35.529Z,100651
2014-07-20T09:48:53.857Z,100648
2014-07-20T09:49:12.201Z,100648
2014-07-20T09:49:30.531Z,100655
2014-07-20T09:49:48.859Z,100656
2014-07-20T09:50:07.187Z,100654
2014-07-20T09:50:25.533Z,100656
2014-07-20T09:50:43.861Z,100645
2014-07-20T09:51:02.189Z,100645
2014-07-20T09:51:20.518Z,100648
2014-07-20T09:51:38.864Z,100639
2014-07-20T09:51:57.192Z,100648
2014-07-20T09:52:15.536Z,100651
2014-07-20T09:52:33.865Z,100642
2014-07-20T09:52:52.193Z,100654
2014-07-20T09:53:10.522Z,100645
2014-07-20T09:53:28.867Z,100645
2014-07-20T09:53:47.195Z,100648
2014-07-20T09:54:05.524Z,100642
2014-07-20T09:54:23.869Z,100651
2014-07-20T09:54:42.197Z,100648
2014-07-20T09:55:00.510Z,100648
2014-07-20T09:55:18.854Z,100648
2014-07-20T09:55:37.184Z,100640
2014-07-20T09:55:55.512Z,100651
2014-07-20T09:56:13.856Z,100640
2014-07-20T09:56:32.186Z,100645
2014-07-20T09:56:50.514Z,100642
2014-07-20T09:57:08.842Z,100637
2014-07-20T09:57:27.172Z,100645
2014-07-20T09:57:45.516Z,100640
2014-07-20T09:58:03.844Z,100651
2014-07-20T09:58:22.172Z,100640
2014-07-20T09:58:40.502Z,100648
2014-07-20T09:58:58.846Z,100645
2014-07-20T09:59:17.174Z,100637
2014-07-20T09:59:35.504Z,100642
2014-07-20T09:59:53.832Z,100645
2014-07-20T10:00:12.161Z,100642
2014-07-20T10:00:30.491Z,100637
2014-07-20T10:00:49.038Z,100631
2014-07-20T10:01:07.163Z,100643
2014-07-20T10:01:25.491Z,100637
2014-07-20T10:01:43.836Z,100640
2014-07-20T10:02:02.165Z,100640
2014-07-20T10:02:20.493Z,100654
2014-07-20T10:02:38.823Z,100634
2014-07-20T10:02:57.167Z,100640
2014-07-20T10:03:15.495Z,100634
2014-07-20T10:03:33.825Z,100648
2014-07-20T10:03:52.153Z,100646
2014-07-20T10:04:10.481Z,100637
2014-07-20T10:04:28.827Z,100646
2014-07-20T10:04:47.155Z,100637
2014-07-20T10:05:05.483Z,100643
2014-07-20T10:05:23.827Z,100643
2014-07-20T10:05:42.157Z,100648
2014-07-20T10:06:00.485Z,100646
2014-07-20T10:06:18.813Z,100640
2014-07-20T10:06:37.143Z,100640
2014-07-20T10:06:55.487Z,100643
2014-07-20T10:07:13.815Z,100646
2014-07-20T10:07:32.144Z,100628
2014-07-20T10:07:50.472Z,100640
2014-07-20T10:08:08.801Z,100634
2014-07-20T10:08:27.144Z,100640
2014-07-20T10:08:45.474Z,100631
2014-07-20T10:09:03.803Z,100637
2014-07-20T10:09:22.131Z,100634
2014-07-20T10:09:40.461Z,100634
2014-07-20T10:09:58.789Z,100640
2014-07-20T10:10:17.148Z,100634
2014-07-20T10:10:35.478Z,100637
2014-07-20T10:10:53.807Z,100631
2014-07-20T10:11:12.135Z,100631
2014-07-20T10:11:30.463Z,100637
2014-07-20T10:11:48.793Z,100628
2014-07-20T10:12:07.137Z,100637
2014-07-20T10:12:25.465Z,100631
2014-07-20T10:12:43.795Z,100628
2014-07-20T10:13:02.123Z,100631
2014-07-20T10:13:20.467Z,100643
2014-07-20T10:13:38.813Z,100634
2014-07-20T10:13:57.125Z,100634
2014-07-20T10:14:15.453Z,100634
2014-07-20T10:14:33.797Z,100631
2014-07-20T10:14:52.127Z,100643
2014-07-20T10:15:10.455Z,100637
2014-07-20T10:15:28.799Z,100634
2014-07-20T10:15:47.129Z,100634
2014-07-20T10:16:05.457Z,100634
2014-07-20T10:16:23.785Z,100634
2014-07-20T10:16:42.115Z,100637
2014-07-20T10:17:00.459Z,100637
2014-07-20T10:17:18.787Z,100634
2014-07-20T10:17:37.115Z,100634
2014-07-20T10:17:55.446Z,100634
2014-07-20T10:18:13.774Z,100623
2014-07-20T10:18:32.117Z,100631
2014-07-20T10:18:50.431Z,100637
2014-07-20T10:19:08.775Z,100643
2014-07-20T10:19:27.103Z,100634
2014-07-20T10:19:45.434Z,100631
2014-07-20T10:20:03.762Z,100637
2014-07-20T10:20:22.106Z,100637
2014-07-20T10:20:40.435Z,100643
2014-07-20T10:20:58.763Z,100640
2014-07-20T10:21:17.091Z,100637
2014-07-20T10:21:35.419Z,100626
2014-07-20T10:21:53.750Z,100629
2014-07-20T10:22:12.079Z,100634
2014-07-20T10:22:30.422Z,100623
2014-07-20T10:22:48.752Z,100637
2014-07-20T10:23:07.081Z,100629
2014-07-20T10:23:25.409Z,100634
2014-07-20T10:23:43.738Z,100631
2014-07-20T10:24:02.066Z,100631
2014-07-20T10:24:20.410Z,100640
2014-07-20T10:24:38.738Z,100634
2014-07-20T10:24:57.068Z,100629
2014-07-20T10:25:15.412Z,100640
2014-07-20T10:25:33.740Z,100634
2014-07-20T10:25:52.071Z,100637
2014-07-20T10:26:10.399Z,100631
2014-07-20T10:26:28.727Z,100626
2014-07-20T10:26:47.056Z,100629
2014-07-20T10:27:05.400Z,100629
2014-07-20T10:27:23.728Z,100632
2014-07-20T10:27:42.056Z,100629
2014-07-20T10:28:00.386Z,100629
2014-07-20T10:28:18.715Z,100623
2014-07-20T10:28:37.058Z,100626
2014-07-20T10:28:55.388Z,100629
2014-07-20T10:29:13.717Z,100617
2014-07-20T10:29:32.045Z,100623
2014-07-20T10:29:50.390Z,100623
2014-07-20T10:30:08.719Z,100623
2014-07-20T10:30:27.047Z,100629
2014-07-20T10:30:45.390Z,100626
2014-07-20T10:31:03.721Z,100626
2014-07-20T10:31:22.049Z,100626
2014-07-20T10:31:40.377Z,100629
2014-07-20T10:31:58.707Z,100620
2014-07-20T10:32:17.035Z,100626
2014-07-20T10:32:35.379Z,100629
2014-07-20T10:32:53.709Z,100620
2014-07-20T10:33:12.037Z,100620
2014-07-20T10:33:30.381Z,100629
2014-07-20T10:33:48.711Z,100623
2014-07-20T10:34:07.039Z,100623
2014-07-20T10:34:25.367Z,100623
2014-07-20T10:34:43.695Z,100623
2014-07-20T10:35:02.025Z,100629
2014-07-20T10:35:20.369Z,100623
2014-07-20T10:35:38.697Z,100626
2014-07-20T10:35:57.027Z,100623
2014-07-20T10:36:15.356Z,100623
2014-07-20T10:36:33.684Z,100629
2014-07-20T10:36:52.013Z,100626
2014-07-20T10:37:10.341Z,100629
2014-07-20T10:37:28.685Z,100626
2014-07-20T10:37:47.216Z,100620
2014-07-20T10:38:05.344Z,100623
2014-07-20T10:38:23.672Z,100617
2014-07-20T10:38:42.000Z,100617
2014-07-20T10:39:00.329Z,100626
2014-07-20T10:39:18.673Z,100617
2014-07-20T10:39:37.001Z,100623
2014-07-20T10:39:55.332Z,100623
2014-07-20T10:40:13.660Z,100623
2014-07-20T10:40:31.989Z,100620
2014-07-20T10:40:50.332Z,100617
2014-07-20T10:41:08.661Z,100617
2014-07-20T10:41:27.005Z,100620
2014-07-20T10:41:45.521Z,100623
2014-07-20T10:42:03.664Z,100631
2014-07-20T10:42:21.993Z,100634
2014-07-20T10:42:40.336Z,100629
2014-07-20T10:42:58.665Z,100626
2014-07-20T10:43:16.994Z,100623
2014-07-20T10:43:35.322Z,100631
2014-07-20T10:43:53.665Z,100620
2014-07-20T10:44:11.996Z,100623
2014-07-20T10:44:30.324Z,100626
2014-07-20T10:44:48.652Z,100629
2014-07-20T10:45:06.982Z,100626
2014-07-20T10:45:25.326Z,100626
2014-07-20T10:45:43.654Z,100614
2014-07-20T10:46:01.984Z,100614
2014-07-20T10:46:20.312Z,100623
2014-07-20T10:46:38.656Z,100620
2014-07-20T10:46:56.984Z,100620
2014-07-20T10:47:15.314Z,100626
2014-07-20T10:47:33.642Z,100617
2014-07-20T10:47:51.970Z,100614
2014-07-20T10:48:10.316Z,100620
2014-07-20T10:48:28.644Z,100626
2014-07-20T10:48:46.972Z,100611
2014-07-20T10:49:05.302Z,100631
2014-07-20T10:49:23.631Z,100620
2014-07-20T10:49:41.974Z,100625
2014-07-20T10:50:00.304Z,100617
2014-07-20T10:50:18.633Z,100620
2014-07-20T10:50:36.961Z,100626
2014-07-20T10:50:55.289Z,100623
2014-07-20T10:51:13.619Z,100617
2014-07-20T10:51:31.947Z,100623
2014-07-20T10:51:50.291Z,100623
2014-07-20T10:52:08.621Z,100623
2014-07-20T10:52:26.949Z,100620
2014-07-20T10:52:45.277Z,100614
2014-07-20T10:53:03.606Z,100611
2014-07-20T10:53:21.934Z,100614
2014-07-20T10:53:40.278Z,100617
2014-07-20T10:53:58.606Z,100614
2014-07-20T10:54:16.937Z,100623
2014-07-20T10:54:35.266Z,100614
2014-07-20T10:54:53.594Z,100617
2014-07-20T10:55:11.939Z,100617
2014-07-20T10:55:30.268Z,100617
2014-07-20T10:55:48.596Z,100608
2014-07-20T10:56:06.925Z,100602
2014-07-20T10:56:25.253Z,100611
2014-07-20T10:56:43.597Z,100602
2014-07-20T10:57:01.925Z,100605
2014-07-20T10:57:20.256Z,100608
2014-07-20T10:57:38.584Z,100605
2014-07-20T10:57:56.912Z,100614
2014-07-20T10:58:15.242Z,100611
2014-07-20T10:58:33.586Z,100608
2014-07-20T10:58:51.914Z,100608
2014-07-20T10:59:10.243Z,100611
2014-07-20T10:59:28.571Z,100608
2014-07-20T10:59:46.900Z,100611
2014-07-20T11:00:05.230Z,100599
2014-07-20T11:00:23.573Z,100611
2014-07-20T11:00:41.902Z,100602
2014-07-20T11:01:00.230Z,100599
2014-07-20T11:01:18.560Z,100605
2014-07-20T11:01:36.904Z,100594
2014-07-20T11:01:55.232Z,100599
2014-07-20T11:02:13.562Z,100605
2014-07-20T11:02:31.906Z,100602
2014-07-20T11:02:50.234Z,100599
2014-07-20T11:03:08.564Z,100611
2014-07-20T11:03:26.908Z,100602
2014-07-20T11:03:45.236Z,100605
2014-07-20T11:04:03.566Z,100608
2014-07-20T11:04:21.894Z,100611
2014-07-20T11:04:40.238Z,100602
2014-07-20T11:04:58.566Z,100605
2014-07-20T11:05:16.896Z,100605
2014-07-20T11:05:35.224Z,100602
2014-07-20T11:05:53.568Z,100602
2014-07-20T11:06:11.898Z,100602
2014-07-20T11:06:30.226Z,100605
2014-07-20T11:06:48.554Z,100599
2014-07-20T11:07:06.900Z,100599
2014-07-20T11:07:25.228Z,100605
2014-07-20T11:07:43.556Z,100594
2014-07-20T11:08:01.884Z,100602
2014-07-20T11:08:20.230Z,100597
2014-07-20T11:08:38.558Z,100594
2014-07-20T11:08:56.886Z,100594
2014-07-20T11:09:15.215Z,100599
2014-07-20T11:09:33.559Z,100602
2014-07-20T11:09:51.887Z,100594
2014-07-20T11:10:10.217Z,100594
2014-07-20T11:10:28.546Z,100594
2014-07-20T11:10:46.874Z,100594
2014-07-20T11:11:05.202Z,100594
2014-07-20T11:11:23.549Z,100596
2014-07-20T11:11:41.877Z,100596
2014-07-20T11:12:00.205Z,100596
2014-07-20T11:12:18.535Z,100599
2014-07-20T11:12:36.863Z,100583
2014-07-20T11:12:55.207Z,100591
2014-07-20T11:13:13.536Z,100594
2014-07-20T11:13:31.864Z,100599
2014-07-20T11:13:50.208Z,100594
2014-07-20T11:14:08.538Z,100591
2014-07-20T11:14:26.866Z,100588
2014-07-20T11:14:45.194Z,100591
2014-07-20T11:15:03.538Z,100591
2014-07-20T11:15:21.868Z,100594
2014-07-20T11:15:40.196Z,100588
2014-07-20T11:15:58.524Z,100583
2014-07-20T11:16:16.854Z,100588
2014-07-20T11:16:35.183Z,100583
2014-07-20T11:16:53.511Z,100583
2014-07-20T11:17:11.856Z,100580
2014-07-20T11:17:30.185Z,100591
2014-07-20T11:17:48.513Z,100599
2014-07-20T11:18:06.841Z,100591
2014-07-20T11:18:25.171Z,100597
2014-07-20T11:18:43.499Z,100588
2014-07-20T11:19:01.843Z,100594
2014-07-20T11:19:20.173Z,100588
2014-07-20T11:19:38.501Z,100588
2014-07-20T11:19:56.829Z,100591
2014-07-20T11:20:15.159Z,100580
2014-07-20T11:20:33.487Z,100602
2014-07-20T11:20:51.816Z,100591
2014-07-20T11:21:10.159Z,100591
2014-07-20T11:21:28.489Z,100591
2014-07-20T11:21:46.818Z,100588
2014-07-20T11:22:05.146Z,100588
2014-07-20T11:22:23.476Z,100597
2014-07-20T11:22:41.804Z,100591
2014-07-20T11:23:00.132Z,100591
2014-07-20T11:23:18.461Z,100597
2014-07-20T11:23:36.789Z,100591
2014-07-20T11:23:55.133Z,100591
2014-07-20T11:24:13.461Z,100591
2014-07-20T11:24:31.792Z,100600
2014-07-20T11:24:50.120Z,100591
2014-07-20T11:25:08.449Z,100591
2014-07-20T11:25:26.778Z,100605
2014-07-20T11:25:45.106Z,100591
2014-07-20T11:26:03.434Z,100577
2014-07-20T11:26:21.765Z,100597
2014-07-20T11:26:40.093Z,100591
2014-07-20T11:26:58.421Z,100580
2014-07-20T11:27:16.750Z,100594
2014-07-20T11:27:35.079Z,100588
2014-07-20T11:27:53.422Z,100594
2014-07-20T11:28:11.750Z,100588
2014-07-20T11:28:30.081Z,100580
2014-07-20T11:28:48.409Z,100588
2014-07-20T11:29:06.737Z,100588
2014-07-20T11:29:25.084Z,100591
2014-07-20T11:29:43.412Z,100591
2014-07-20T11:30:01.740Z,100583
2014-07-20T11:30:20.069Z,100583
2014-07-20T11:30:38.413Z,100588
2014-07-20T11:30:56.741Z,100580
2014-07-20T11:31:15.069Z,100583
2014-07-20T11:31:33.399Z,100591
2014-07-20T11:31:51.727Z,100588
2014-07-20T11:32:10.055Z,100591
2014-07-20T11:32:28.401Z,100583
2014-07-20T11:32:46.729Z,100591
2014-07-20T11:33:05.057Z,100591
2014-07-20T11:33:23.403Z,100591
2014-07-20T11:33:41.716Z,100594
2014-07-20T11:34:00.059Z,100591
2014-07-20T11:34:18.387Z,100580
2014-07-20T11:34:36.733Z,100583
2014-07-20T11:34:55.061Z,100591
2014-07-20T11:35:13.608Z,100588
2014-07-20T11:35:31.720Z,100591
2014-07-20T11:35:50.063Z,100583
2014-07-20T11:36:08.391Z,100591
2014-07-20T11:36:26.722Z,100583
2014-07-20T11:36:45.050Z,100588
2014-07-20T11:37:03.378Z,100588
2014-07-20T11:37:21.706Z,100594
2014-07-20T11:37:40.036Z,100577
2014-07-20T11:37:58.364Z,100580
2014-07-20T11:38:16.708Z,100583
2014-07-20T11:38:35.038Z,100583
2014-07-20T11:38:53.366Z,100583
2014-07-20T11:39:11.694Z,100588
2014-07-20T11:39:30.023Z,100588
2014-07-20T11:39:48.352Z,100583
2014-07-20T11:40:06.680Z,100583
2014-07-20T11:40:25.008Z,100574
2014-07-20T11:40:43.338Z,100583
2014-07-20T11:41:01.666Z,100594
2014-07-20T11:41:19.994Z,100580
2014-07-20T11:41:38.325Z,100591
2014-07-20T11:41:56.653Z,100580
2014-07-20T11:42:14.982Z,100591
2014-07-20T11:42:33.311Z,100580
2014-07-20T11:42:51.639Z,100591
2014-07-20T11:43:09.967Z,100594
2014-07-20T11:43:28.297Z,100580
2014-07-20T11:43:46.625Z,100577
2014-07-20T11:44:04.953Z,100591
2014-07-20T11:44:23.297Z,100574
2014-07-20T11:44:41.627Z,100580
2014-07-20T11:44:59.955Z,100583
2014-07-20T11:45:18.283Z,100588
2014-07-20T11:45:36.615Z,100580
2014-07-20T11:45:54.943Z,100583
2014-07-20T11:46:13.271Z,100580
2014-07-20T11:46:31.600Z,100583
2014-07-20T11:46:49.928Z,100580
2014-07-20T11:47:08.256Z,100580
2014-07-20T11:47:26.584Z,100583
2014-07-20T11:47:44.915Z,100588
2014-07-20T11:48:03.244Z,100577
2014-07-20T11:48:21.572Z,100580
2014-07-20T11:48:39.901Z,100580
2014-07-20T11:48:58.229Z,100577
2014-07-20T11:49:16.557Z,100574
2014-07-20T11:49:34.887Z,100583
2014-07-20T11:49:53.215Z,100583
2014-07-20T11:50:11.543Z,100574
2014-07-20T11:50:29.872Z,100574
2014-07-20T11:50:48.217Z,100580
2014-07-20T11:51:06.545Z,100574
2014-07-20T11:51:24.874Z,100574
2014-07-20T11:51:43.204Z,100577
2014-07-20T11:52:01.532Z,100583
2014-07-20T11:52:19.860Z,100574
2014-07-20T11:52:38.190Z,100574
2014-07-20T11:52:56.518Z,100577
2014-07-20T11:53:14.846Z,100571
2014-07-20T11:53:33.174Z,100574
2014-07-20T11:53:51.505Z,100574
2014-07-20T11:54:09.833Z,100574
2014-07-20T11:54:28.161Z,100574
2014-07-20T11:54:46.491Z,100574
2014-07-20T11:55:04.819Z,100574
2014-07-20T11:55:23.147Z,100571
2014-07-20T11:55:41.477Z,100569
2014-07-20T11:55:59.805Z,100577
2014-07-20T11:56:18.149Z,100560
2014-07-20T11:56:36.462Z,100566
2014-07-20T11:56:54.807Z,100566
2014-07-20T11:57:13.136Z,100563
2014-07-20T11:57:31.464Z,100566
2014-07-20T11:57:49.794Z,100568
2014-07-20T11:58:08.122Z,100566
2014-07-20T11:58:26.450Z,100571
2014-07-20T11:58:44.780Z,100568
2014-07-20T11:59:03.124Z,100566
2014-07-20T11:59:21.452Z,100571
2014-07-20T11:59:39.780Z,100568
2014-07-20T11:59:58.110Z,100574
2014-07-20T12:00:16.438Z,100568
2014-07-20T12:00:34.782Z,100574
2014-07-20T12:00:53.112Z,100563
2014-07-20T12:01:11.440Z,100568
2014-07-20T12:01:29.769Z,100563
2014-07-20T12:01:48.097Z,100571
2014-07-20T12:02:06.427Z,100574
2014-07-20T12:02:24.755Z,100563
2014-07-20T12:02:43.099Z,100566
2014-07-20T12:03:01.429Z,100568
2014-07-20T12:03:19.757Z,100574
2014-07-20T12:03:38.085Z,100566
2014-07-20T12:03:56.415Z,100566
2014-07-20T12:04:14.743Z,100560
2014-07-20T12:04:33.087Z,100566
2014-07-20T12:04:51.415Z,100554
2014-07-20T12:05:09.744Z,100563
2014-07-20T12:05:28.072Z,100554
2014-07-20T12:05:46.401Z,100566
2014-07-20T12:06:04.732Z,100563
2014-07-20T12:06:23.060Z,100563
2014-07-20T12:06:41.388Z,100560
2014-07-20T12:06:59.734Z,100560
2014-07-20T12:07:18.046Z,100563
2014-07-20T12:07:36.390Z,100557
2014-07-20T12:07:54.718Z,100566
2014-07-20T12:08:13.048Z,100560
2014-07-20T12:08:31.376Z,100557
2014-07-20T12:08:49.704Z,100557
2014-07-20T12:09:08.034Z,100557
2014-07-20T12:09:26.362Z,100560
2014-07-20T12:09:44.690Z,100557
2014-07-20T12:10:03.018Z,100563
2014-07-20T12:10:21.348Z,100563
2014-07-20T12:10:39.692Z,100560
2014-07-20T12:10:58.020Z,100563
2014-07-20T12:11:16.351Z,100560
2014-07-20T12:11:34.679Z,100572
2014-07-20T12:11:53.023Z,100560
2014-07-20T12:12:11.353Z,100563
2014-07-20T12:12:29.681Z,100563
2014-07-20T12:12:48.025Z,100566
2014-07-20T12:13:06.354Z,100569
2014-07-20T12:13:24.682Z,100569
2014-07-20T12:13:43.010Z,100566
2014-07-20T12:14:01.338Z,100572
2014-07-20T12:14:19.684Z,100566
2014-07-20T12:14:38.012Z,100566
2014-07-20T12:14:56.340Z,100557
2014-07-20T12:15:14.671Z,100566
2014-07-20T12:15:32.999Z,100566
2014-07-20T12:15:51.342Z,100560
2014-07-20T12:16:09.673Z,100557
2014-07-20T12:16:28.001Z,100569
2014-07-20T12:16:46.344Z,100563
2014-07-20T12:17:04.675Z,100563
2014-07-20T12:17:23.003Z,100560
2014-07-20T12:17:41.346Z,100560
2014-07-20T12:17:59.675Z,100566
2014-07-20T12:18:18.005Z,100560
2014-07-20T12:18:36.333Z,100572
2014-07-20T12:18:54.677Z,100569
2014-07-20T12:19:13.007Z,100566
2014-07-20T12:19:31.366Z,100560
2014-07-20T12:19:49.679Z,100569
2014-07-20T12:20:08.009Z,100566
2014-07-20T12:20:26.337Z,100566
2014-07-20T12:20:44.665Z,100560
2014-07-20T12:21:02.993Z,100563
2014-07-20T12:21:21.339Z,100560
2014-07-20T12:21:39.667Z,100563
2014-07-20T12:21:57.995Z,100563
2014-07-20T12:22:16.325Z,100566
2014-07-20T12:22:34.653Z,100566
2014-07-20T12:22:52.981Z,100557
2014-07-20T12:23:11.312Z,100560
2014-07-20T12:23:29.640Z,100560
2014-07-20T12:23:47.968Z,100566
2014-07-20T12:24:06.312Z,100566
2014-07-20T12:24:24.641Z,100566
2014-07-20T12:24:42.984Z,100566
2014-07-20T12:25:01.313Z,100557
2014-07-20T12:25:19.643Z,100557
2014-07-20T12:25:37.971Z,100560
2014-07-20T12:25:56.315Z,100566
2014-07-20T12:26:14.646Z,100554
2014-07-20T12:26:32.974Z,100557
2014-07-20T12:26:51.302Z,100563
2014-07-20T12:27:09.630Z,100546
2014-07-20T12:27:27.959Z,100560
2014-07-20T12:27:46.303Z,100557
2014-07-20T12:28:04.631Z,100563
2014-07-20T12:28:22.962Z,100557
2014-07-20T12:28:41.306Z,100563
2014-07-20T12:28:59.634Z,100560
2014-07-20T12:29:17.963Z,100557
2014-07-20T12:29:36.291Z,100554
2014-07-20T12:29:54.619Z,100557
2014-07-20T12:30:12.963Z,100557
2014-07-20T12:30:31.294Z,100566
2014-07-20T12:30:49.622Z,100560
2014-07-20T12:31:07.951Z,100551
2014-07-20T12:31:26.280Z,100551
2014-07-20T12:31:44.608Z,100557
2014-07-20T12:32:02.936Z,100554
2014-07-20T12:32:21.283Z,100551
2014-07-20T12:32:39.611Z,100560
2014-07-20T12:32:57.939Z,100554
2014-07-20T12:33:16.267Z,100557
2014-07-20T12:33:34.597Z,100560
2014-07-20T12:33:52.925Z,100554
2014-07-20T12:34:11.269Z,100554
2014-07-20T12:34:29.598Z,100554
2014-07-20T12:34:47.926Z,100554
2014-07-20T12:35:06.254Z,100557
2014-07-20T12:35:24.600Z,100557
2014-07-20T12:35:42.928Z,100557
2014-07-20T12:36:01.256Z,100551
2014-07-20T12:36:19.585Z,100560
2014-07-20T12:36:37.930Z,100563
2014-07-20T12:36:56.258Z,100554
2014-07-20T12:37:14.587Z,100557
2014-07-20T12:37:32.932Z,100557
2014-07-20T12:37:51.260Z,100560
2014-07-20T12:38:09.589Z,100563
2014-07-20T12:38:27.919Z,100551
2014-07-20T12:38:46.262Z,100557
2014-07-20T12:39:04.591Z,100563
2014-07-20T12:39:22.919Z,100557
2014-07-20T12:39:41.264Z,100551
2014-07-20T12:39:59.593Z,100551
2014-07-20T12:40:17.921Z,100554
2014-07-20T12:40:36.251Z,100563
2014-07-20T12:40:54.595Z,100569
2014-07-20T12:41:12.923Z,100554
2014-07-20T12:41:31.253Z,100554
2014-07-20T12:41:49.581Z,100554
2014-07-20T12:42:07.909Z,100560
2014-07-20T12:42:26.237Z,100554
2014-07-20T12:42:44.567Z,100563
2014-07-20T12:43:02.895Z,100551
2014-07-20T12:43:21.224Z,100566